sensor_id;sensor_type;location;lat;lon;timestamp;P1;durP1;ratioP1;P2;durP2;ratioP2
80748;SDS011;70145;53.746;9.970;2024-02-15T00:00:13;7.43;;;4.45;;
80748;SDS011;70145;53.746;9.970;2024-02-15T00:02:41;8.25;;;5.00;;
80748;SDS011;70145;53.746;9.970;2024-02-15T00:05:10;9.10;;;4.80;;
80748;SDS011;70145;53.746;9.970;2024-02-15T00:07:36;8.98;;;4.93;;
80748;SDS011;70145;53.746;9.970;2024-02-15T00:10:01;8.10;;;4.47;;
80748;SDS011;70145;53.746;9.970;2024-02-15T00:12:28;9.85;;;4.63;;
80748;SDS011;70145;53.746;9.970;2024-02-15T00:14:54;9.18;;;5.00;;
80748;SDS011;70145;53.746;9.970;2024-02-15T00:17:23;8.75;;;4.80;;
80748;SDS011;70145;53.746;9.970;2024-02-15T00:19:49;10.85;;;5.63;;
80748;SDS011;70145;53.746;9.970;2024-02-15T00:22:14;9.60;;;5.28;;
80748;SDS011;70145;53.746;9.970;2024-02-15T00:24:40;10.15;;;5.70;;
80748;SDS011;70145;53.746;9.970;2024-02-15T00:27:06;9.77;;;5.57;;
80748;SDS011;70145;53.746;9.970;2024-02-15T00:29:32;10.80;;;5.97;;
80748;SDS011;70145;53.746;9.970;2024-02-15T00:31:59;9.13;;;5.18;;
80748;SDS011;70145;53.746;9.970;2024-02-15T00:34:24;8.13;;;4.63;;
80748;SDS011;70145;53.746;9.970;2024-02-15T00:36:51;8.35;;;5.25;;
80748;SDS011;70145;53.746;9.970;2024-02-15T00:39:17;8.63;;;4.63;;
80748;SDS011;70145;53.746;9.970;2024-02-15T00:41:43;9.45;;;5.63;;
80748;SDS011;70145;53.746;9.970;2024-02-15T00:44:10;8.52;;;5.43;;
80748;SDS011;70145;53.746;9.970;2024-02-15T00:46:36;9.40;;;5.55;;
80748;SDS011;70145;53.746;9.970;2024-02-15T00:49:01;9.02;;;5.53;;
80748;SDS011;70145;53.746;9.970;2024-02-15T00:51:27;8.82;;;5.28;;
80748;SDS011;70145;53.746;9.970;2024-02-15T00:53:52;7.97;;;4.90;;
80748;SDS011;70145;53.746;9.970;2024-02-15T00:56:17;7.47;;;5.10;;
80748;SDS011;70145;53.746;9.970;2024-02-15T00:58:43;8.30;;;5.00;;
80748;SDS011;70145;53.746;9.970;2024-02-15T01:01:08;7.57;;;4.53;;
80748;SDS011;70145;53.746;9.970;2024-02-15T01:03:36;7.28;;;4.50;;
80748;SDS011;70145;53.746;9.970;2024-02-15T01:06:03;6.72;;;4.15;;
80748;SDS011;70145;53.746;9.970;2024-02-15T01:08:30;6.90;;;3.95;;
80748;SDS011;70145;53.746;9.970;2024-02-15T01:10:55;7.43;;;4.22;;
80748;SDS011;70145;53.746;9.970;2024-02-15T01:13:21;8.20;;;4.45;;
80748;SDS011;70145;53.746;9.970;2024-02-15T01:15:46;7.63;;;5.13;;
80748;SDS011;70145;53.746;9.970;2024-02-15T01:18:12;8.02;;;4.72;;
80748;SDS011;70145;53.746;9.970;2024-02-15T01:20:37;8.23;;;4.87;;
80748;SDS011;70145;53.746;9.970;2024-02-15T01:23:03;8.35;;;5.03;;
80748;SDS011;70145;53.746;9.970;2024-02-15T01:25:30;8.13;;;4.75;;
80748;SDS011;70145;53.746;9.970;2024-02-15T01:27:55;7.88;;;4.55;;
80748;SDS011;70145;53.746;9.970;2024-02-15T01:30:20;7.73;;;4.70;;
80748;SDS011;70145;53.746;9.970;2024-02-15T01:32:46;8.05;;;4.95;;
80748;SDS011;70145;53.746;9.970;2024-02-15T01:35:11;7.97;;;4.73;;
80748;SDS011;70145;53.746;9.970;2024-02-15T01:37:37;6.90;;;4.50;;
80748;SDS011;70145;53.746;9.970;2024-02-15T01:40:02;7.27;;;4.43;;
80748;SDS011;70145;53.746;9.970;2024-02-15T01:42:28;8.02;;;4.78;;
80748;SDS011;70145;53.746;9.970;2024-02-15T01:44:53;9.13;;;5.13;;
80748;SDS011;70145;53.746;9.970;2024-02-15T01:47:19;8.45;;;5.20;;
80748;SDS011;70145;53.746;9.970;2024-02-15T01:49:45;6.85;;;4.60;;
80748;SDS011;70145;53.746;9.970;2024-02-15T01:52:10;7.37;;;4.40;;
80748;SDS011;70145;53.746;9.970;2024-02-15T01:54:38;7.95;;;4.57;;
80748;SDS011;70145;53.746;9.970;2024-02-15T01:57:04;8.77;;;5.28;;
80748;SDS011;70145;53.746;9.970;2024-02-15T01:59:30;7.32;;;4.38;;
80748;SDS011;70145;53.746;9.970;2024-02-15T02:01:56;7.65;;;4.60;;
80748;SDS011;70145;53.746;9.970;2024-02-15T02:04:21;7.88;;;4.22;;
80748;SDS011;70145;53.746;9.970;2024-02-15T02:06:47;8.50;;;4.70;;
80748;SDS011;70145;53.746;9.970;2024-02-15T02:09:13;7.50;;;4.68;;
80748;SDS011;70145;53.746;9.970;2024-02-15T02:11:39;10.45;;;5.38;;
80748;SDS011;70145;53.746;9.970;2024-02-15T02:14:06;8.95;;;5.25;;
80748;SDS011;70145;53.746;9.970;2024-02-15T02:16:31;8.02;;;4.50;;
80748;SDS011;70145;53.746;9.970;2024-02-15T02:18:57;12.43;;;6.22;;
80748;SDS011;70145;53.746;9.970;2024-02-15T02:21:26;10.93;;;5.00;;
80748;SDS011;70145;53.746;9.970;2024-02-15T02:23:55;8.23;;;4.82;;
80748;SDS011;70145;53.746;9.970;2024-02-15T02:26:21;8.52;;;4.78;;
80748;SDS011;70145;53.746;9.970;2024-02-15T02:28:48;10.27;;;5.72;;
80748;SDS011;70145;53.746;9.970;2024-02-15T02:31:13;8.25;;;4.70;;
80748;SDS011;70145;53.746;9.970;2024-02-15T02:33:39;9.27;;;5.63;;
80748;SDS011;70145;53.746;9.970;2024-02-15T02:36:06;10.38;;;4.95;;
80748;SDS011;70145;53.746;9.970;2024-02-15T02:41:05;8.70;;;5.35;;
80748;SDS011;70145;53.746;9.970;2024-02-15T02:43:30;10.57;;;5.50;;
80748;SDS011;70145;53.746;9.970;2024-02-15T02:45:55;10.97;;;5.27;;
80748;SDS011;70145;53.746;9.970;2024-02-15T02:48:20;10.63;;;5.87;;
80748;SDS011;70145;53.746;9.970;2024-02-15T02:50:46;11.68;;;5.82;;
80748;SDS011;70145;53.746;9.970;2024-02-15T02:53:12;9.98;;;5.82;;
80748;SDS011;70145;53.746;9.970;2024-02-15T02:55:38;10.43;;;6.07;;
80748;SDS011;70145;53.746;9.970;2024-02-15T02:58:05;10.00;;;6.05;;
80748;SDS011;70145;53.746;9.970;2024-02-15T03:00:32;9.50;;;5.47;;
80748;SDS011;70145;53.746;9.970;2024-02-15T03:02:57;9.27;;;5.53;;
80748;SDS011;70145;53.746;9.970;2024-02-15T03:05:23;11.50;;;5.90;;
80748;SDS011;70145;53.746;9.970;2024-02-15T03:07:48;9.80;;;5.32;;
80748;SDS011;70145;53.746;9.970;2024-02-15T03:10:13;9.73;;;5.72;;
80748;SDS011;70145;53.746;9.970;2024-02-15T03:12:40;8.52;;;5.00;;
80748;SDS011;70145;53.746;9.970;2024-02-15T03:15:05;11.80;;;6.20;;
80748;SDS011;70145;53.746;9.970;2024-02-15T03:17:38;10.80;;;5.68;;
80748;SDS011;70145;53.746;9.970;2024-02-15T03:20:05;10.45;;;5.85;;
80748;SDS011;70145;53.746;9.970;2024-02-15T03:22:55;10.75;;;5.93;;
80748;SDS011;70145;53.746;9.970;2024-02-15T03:25:21;11.13;;;6.30;;
80748;SDS011;70145;53.746;9.970;2024-02-15T03:27:50;13.30;;;6.47;;
80748;SDS011;70145;53.746;9.970;2024-02-15T03:30:19;11.73;;;6.55;;
80748;SDS011;70145;53.746;9.970;2024-02-15T03:32:46;10.60;;;5.57;;
80748;SDS011;70145;53.746;9.970;2024-02-15T03:35:13;11.82;;;6.18;;
80748;SDS011;70145;53.746;9.970;2024-02-15T03:37:40;10.35;;;5.90;;
80748;SDS011;70145;53.746;9.970;2024-02-15T03:40:06;12.40;;;6.45;;
80748;SDS011;70145;53.746;9.970;2024-02-15T03:42:33;11.95;;;6.35;;
80748;SDS011;70145;53.746;9.970;2024-02-15T03:45:01;10.73;;;6.15;;
80748;SDS011;70145;53.746;9.970;2024-02-15T03:47:33;11.07;;;6.05;;
80748;SDS011;70145;53.746;9.970;2024-02-15T03:50:00;11.02;;;6.20;;
80748;SDS011;70145;53.746;9.970;2024-02-15T03:52:29;11.65;;;5.97;;
80748;SDS011;70145;53.746;9.970;2024-02-15T03:54:55;10.50;;;5.90;;
80748;SDS011;70145;53.746;9.970;2024-02-15T03:57:24;10.88;;;6.53;;
80748;SDS011;70145;53.746;9.970;2024-02-15T03:59:50;11.82;;;6.07;;
80748;SDS011;70145;53.746;9.970;2024-02-15T04:02:17;11.80;;;6.43;;
80748;SDS011;70145;53.746;9.970;2024-02-15T04:04:48;11.02;;;6.28;;
80748;SDS011;70145;53.746;9.970;2024-02-15T04:07:14;12.20;;;6.88;;
80748;SDS011;70145;53.746;9.970;2024-02-15T04:09:41;10.35;;;5.68;;
80748;SDS011;70145;53.746;9.970;2024-02-15T04:12:09;11.18;;;6.32;;
80748;SDS011;70145;53.746;9.970;2024-02-15T04:14:34;12.70;;;7.13;;
80748;SDS011;70145;53.746;9.970;2024-02-15T04:16:59;13.60;;;6.60;;
80748;SDS011;70145;53.746;9.970;2024-02-15T04:19:26;12.57;;;6.88;;
80748;SDS011;70145;53.746;9.970;2024-02-15T04:21:52;11.50;;;6.75;;
80748;SDS011;70145;53.746;9.970;2024-02-15T04:24:17;12.60;;;6.70;;
80748;SDS011;70145;53.746;9.970;2024-02-15T04:26:43;12.43;;;6.43;;
80748;SDS011;70145;53.746;9.970;2024-02-15T04:29:08;13.70;;;7.00;;
80748;SDS011;70145;53.746;9.970;2024-02-15T04:31:35;13.10;;;7.10;;
80748;SDS011;70145;53.746;9.970;2024-02-15T04:34:04;15.32;;;6.60;;
80748;SDS011;70145;53.746;9.970;2024-02-15T04:36:29;16.30;;;7.83;;
80748;SDS011;70145;53.746;9.970;2024-02-15T04:38:59;12.82;;;7.20;;
80748;SDS011;70145;53.746;9.970;2024-02-15T04:41:26;16.02;;;7.38;;
80748;SDS011;70145;53.746;9.970;2024-02-15T04:43:52;14.43;;;6.88;;
80748;SDS011;70145;53.746;9.970;2024-02-15T04:46:17;14.65;;;7.32;;
80748;SDS011;70145;53.746;9.970;2024-02-15T04:48:50;14.25;;;6.75;;
80748;SDS011;70145;53.746;9.970;2024-02-15T04:51:15;15.90;;;8.00;;
80748;SDS011;70145;53.746;9.970;2024-02-15T04:53:41;17.30;;;8.05;;
80748;SDS011;70145;53.746;9.970;2024-02-15T04:56:07;15.98;;;7.93;;
80748;SDS011;70145;53.746;9.970;2024-02-15T04:58:38;16.05;;;7.43;;
80748;SDS011;70145;53.746;9.970;2024-02-15T05:01:13;15.88;;;7.65;;
80748;SDS011;70145;53.746;9.970;2024-02-15T05:03:45;19.70;;;8.95;;
80748;SDS011;70145;53.746;9.970;2024-02-15T05:06:10;13.85;;;6.97;;
80748;SDS011;70145;53.746;9.970;2024-02-15T05:08:38;20.13;;;7.65;;
80748;SDS011;70145;53.746;9.970;2024-02-15T05:11:07;13.75;;;6.78;;
80748;SDS011;70145;53.746;9.970;2024-02-15T05:13:45;13.73;;;7.00;;
80748;SDS011;70145;53.746;9.970;2024-02-15T05:16:10;14.65;;;7.47;;
80748;SDS011;70145;53.746;9.970;2024-02-15T05:18:36;13.55;;;7.07;;
80748;SDS011;70145;53.746;9.970;2024-02-15T05:21:02;13.60;;;7.07;;
80748;SDS011;70145;53.746;9.970;2024-02-15T05:23:28;15.07;;;6.68;;
80748;SDS011;70145;53.746;9.970;2024-02-15T05:25:54;13.30;;;6.68;;
80748;SDS011;70145;53.746;9.970;2024-02-15T05:28:21;13.95;;;7.05;;
80748;SDS011;70145;53.746;9.970;2024-02-15T05:30:51;13.35;;;6.57;;
80748;SDS011;70145;53.746;9.970;2024-02-15T05:33:39;13.23;;;5.88;;
80748;SDS011;70145;53.746;9.970;2024-02-15T05:36:08;13.40;;;6.68;;
80748;SDS011;70145;53.746;9.970;2024-02-15T05:38:35;14.48;;;6.30;;
80748;SDS011;70145;53.746;9.970;2024-02-15T05:41:01;15.93;;;7.53;;
80748;SDS011;70145;53.746;9.970;2024-02-15T05:43:28;13.57;;;6.47;;
80748;SDS011;70145;53.746;9.970;2024-02-15T05:45:53;15.65;;;6.90;;
80748;SDS011;70145;53.746;9.970;2024-02-15T05:48:18;12.87;;;6.67;;
80748;SDS011;70145;53.746;9.970;2024-02-15T05:50:44;16.88;;;6.90;;
80748;SDS011;70145;53.746;9.970;2024-02-15T05:53:09;13.10;;;7.25;;
80748;SDS011;70145;53.746;9.970;2024-02-15T05:55:35;16.05;;;7.78;;
80748;SDS011;70145;53.746;9.970;2024-02-15T05:58:02;13.30;;;6.93;;
80748;SDS011;70145;53.746;9.970;2024-02-15T06:00:27;14.48;;;6.60;;
80748;SDS011;70145;53.746;9.970;2024-02-15T06:02:54;14.45;;;6.90;;
80748;SDS011;70145;53.746;9.970;2024-02-15T06:05:20;14.23;;;7.03;;
80748;SDS011;70145;53.746;9.970;2024-02-15T06:07:46;15.77;;;7.30;;
80748;SDS011;70145;53.746;9.970;2024-02-15T06:10:12;13.48;;;6.88;;
80748;SDS011;70145;53.746;9.970;2024-02-15T06:12:38;16.45;;;7.60;;
80748;SDS011;70145;53.746;9.970;2024-02-15T06:15:04;14.90;;;7.07;;
80748;SDS011;70145;53.746;9.970;2024-02-15T06:17:32;13.65;;;7.30;;
80748;SDS011;70145;53.746;9.970;2024-02-15T06:19:57;15.30;;;6.77;;
80748;SDS011;70145;53.746;9.970;2024-02-15T06:22:22;13.77;;;7.00;;
80748;SDS011;70145;53.746;9.970;2024-02-15T06:24:48;17.58;;;7.35;;
80748;SDS011;70145;53.746;9.970;2024-02-15T06:27:13;15.40;;;7.35;;
80748;SDS011;70145;53.746;9.970;2024-02-15T06:29:39;15.57;;;7.07;;
80748;SDS011;70145;53.746;9.970;2024-02-15T06:32:23;11.85;;;5.72;;
80748;SDS011;70145;53.746;9.970;2024-02-15T06:35:07;15.02;;;6.22;;
80748;SDS011;70145;53.746;9.970;2024-02-15T06:37:51;12.75;;;6.45;;
80748;SDS011;70145;53.746;9.970;2024-02-15T06:40:34;13.05;;;6.25;;
80748;SDS011;70145;53.746;9.970;2024-02-15T06:43:01;16.50;;;8.02;;
80748;SDS011;70145;53.746;9.970;2024-02-15T06:45:26;14.83;;;7.20;;
80748;SDS011;70145;53.746;9.970;2024-02-15T06:47:52;14.43;;;7.50;;
80748;SDS011;70145;53.746;9.970;2024-02-15T06:50:17;13.73;;;6.40;;
80748;SDS011;70145;53.746;9.970;2024-02-15T06:52:43;14.05;;;6.15;;
80748;SDS011;70145;53.746;9.970;2024-02-15T06:55:08;16.15;;;6.43;;
80748;SDS011;70145;53.746;9.970;2024-02-15T06:57:40;14.75;;;7.28;;
80748;SDS011;70145;53.746;9.970;2024-02-15T07:00:06;13.48;;;6.07;;
80748;SDS011;70145;53.746;9.970;2024-02-15T07:02:33;13.25;;;6.85;;
80748;SDS011;70145;53.746;9.970;2024-02-15T07:04:58;15.57;;;6.80;;
80748;SDS011;70145;53.746;9.970;2024-02-15T07:07:24;15.65;;;7.50;;
80748;SDS011;70145;53.746;9.970;2024-02-15T07:09:50;15.15;;;7.57;;
80748;SDS011;70145;53.746;9.970;2024-02-15T07:12:15;14.45;;;7.68;;
80748;SDS011;70145;53.746;9.970;2024-02-15T07:14:41;14.57;;;7.53;;
80748;SDS011;70145;53.746;9.970;2024-02-15T07:17:06;13.33;;;6.67;;
80748;SDS011;70145;53.746;9.970;2024-02-15T07:19:32;14.77;;;8.32;;
80748;SDS011;70145;53.746;9.970;2024-02-15T07:22:01;16.48;;;8.38;;
80748;SDS011;70145;53.746;9.970;2024-02-15T07:24:27;17.63;;;8.88;;
80748;SDS011;70145;53.746;9.970;2024-02-15T07:26:52;16.17;;;7.73;;
80748;SDS011;70145;53.746;9.970;2024-02-15T07:29:20;18.73;;;8.27;;
80748;SDS011;70145;53.746;9.970;2024-02-15T07:31:48;19.48;;;7.80;;
80748;SDS011;70145;53.746;9.970;2024-02-15T07:34:13;17.92;;;8.05;;
80748;SDS011;70145;53.746;9.970;2024-02-15T07:36:39;18.77;;;9.30;;
80748;SDS011;70145;53.746;9.970;2024-02-15T07:39:07;17.75;;;8.27;;
80748;SDS011;70145;53.746;9.970;2024-02-15T07:41:37;16.92;;;8.52;;
80748;SDS011;70145;53.746;9.970;2024-02-15T07:44:03;19.25;;;9.13;;
80748;SDS011;70145;53.746;9.970;2024-02-15T07:46:28;21.95;;;9.27;;
80748;SDS011;70145;53.746;9.970;2024-02-15T07:48:54;19.15;;;8.88;;
80748;SDS011;70145;53.746;9.970;2024-02-15T07:51:22;16.55;;;8.02;;
80748;SDS011;70145;53.746;9.970;2024-02-15T07:53:47;18.60;;;9.27;;
80748;SDS011;70145;53.746;9.970;2024-02-15T07:56:14;17.98;;;9.70;;
80748;SDS011;70145;53.746;9.970;2024-02-15T07:58:41;17.13;;;8.13;;
80748;SDS011;70145;53.746;9.970;2024-02-15T08:01:07;17.02;;;8.23;;
80748;SDS011;70145;53.746;9.970;2024-02-15T08:03:34;21.25;;;8.98;;
80748;SDS011;70145;53.746;9.970;2024-02-15T08:06:00;18.48;;;8.48;;
80748;SDS011;70145;53.746;9.970;2024-02-15T08:08:26;18.75;;;8.82;;
80748;SDS011;70145;53.746;9.970;2024-02-15T08:10:51;16.67;;;7.40;;
80748;SDS011;70145;53.746;9.970;2024-02-15T08:13:16;19.80;;;8.93;;
80748;SDS011;70145;53.746;9.970;2024-02-15T08:15:42;19.20;;;9.00;;
80748;SDS011;70145;53.746;9.970;2024-02-15T08:18:09;16.17;;;7.00;;
80748;SDS011;70145;53.746;9.970;2024-02-15T08:20:37;16.60;;;8.07;;
80748;SDS011;70145;53.746;9.970;2024-02-15T08:23:03;15.75;;;7.90;;
80748;SDS011;70145;53.746;9.970;2024-02-15T08:25:29;15.35;;;7.85;;
80748;SDS011;70145;53.746;9.970;2024-02-15T08:27:55;18.73;;;8.52;;
80748;SDS011;70145;53.746;9.970;2024-02-15T08:30:20;17.97;;;8.67;;
80748;SDS011;70145;53.746;9.970;2024-02-15T08:32:45;17.83;;;8.32;;
80748;SDS011;70145;53.746;9.970;2024-02-15T08:35:13;16.95;;;7.45;;
80748;SDS011;70145;53.746;9.970;2024-02-15T08:37:40;14.75;;;7.22;;
80748;SDS011;70145;53.746;9.970;2024-02-15T08:40:10;14.50;;;7.00;;
80748;SDS011;70145;53.746;9.970;2024-02-15T08:42:40;14.50;;;6.93;;
80748;SDS011;70145;53.746;9.970;2024-02-15T08:45:06;14.98;;;7.72;;
80748;SDS011;70145;53.746;9.970;2024-02-15T08:47:34;11.75;;;5.93;;
80748;SDS011;70145;53.746;9.970;2024-02-15T08:50:06;12.77;;;6.15;;
80748;SDS011;70145;53.746;9.970;2024-02-15T08:52:36;11.75;;;6.28;;
80748;SDS011;70145;53.746;9.970;2024-02-15T08:55:05;11.13;;;5.85;;
80748;SDS011;70145;53.746;9.970;2024-02-15T08:57:34;9.73;;;5.18;;
80748;SDS011;70145;53.746;9.970;2024-02-15T08:59:59;11.35;;;5.70;;
80748;SDS011;70145;53.746;9.970;2024-02-15T09:02:25;13.33;;;6.37;;
80748;SDS011;70145;53.746;9.970;2024-02-15T09:04:50;11.70;;;5.53;;
80748;SDS011;70145;53.746;9.970;2024-02-15T09:07:15;12.73;;;6.75;;
80748;SDS011;70145;53.746;9.970;2024-02-15T09:09:40;12.47;;;5.77;;
80748;SDS011;70145;53.746;9.970;2024-02-15T09:12:06;11.65;;;6.15;;
80748;SDS011;70145;53.746;9.970;2024-02-15T09:14:32;15.85;;;7.25;;
80748;SDS011;70145;53.746;9.970;2024-02-15T09:16:58;13.50;;;6.75;;
80748;SDS011;70145;53.746;9.970;2024-02-15T09:19:24;14.50;;;6.40;;
80748;SDS011;70145;53.746;9.970;2024-02-15T09:21:49;12.57;;;6.07;;
80748;SDS011;70145;53.746;9.970;2024-02-15T09:24:15;12.67;;;6.50;;
80748;SDS011;70145;53.746;9.970;2024-02-15T09:26:41;13.15;;;6.28;;
80748;SDS011;70145;53.746;9.970;2024-02-15T09:29:07;11.45;;;5.70;;
80748;SDS011;70145;53.746;9.970;2024-02-15T09:31:32;13.60;;;6.67;;
80748;SDS011;70145;53.746;9.970;2024-02-15T09:33:59;11.40;;;5.90;;
80748;SDS011;70145;53.746;9.970;2024-02-15T09:36:25;12.67;;;6.13;;
80748;SDS011;70145;53.746;9.970;2024-02-15T09:38:50;14.17;;;6.53;;
80748;SDS011;70145;53.746;9.970;2024-02-15T09:41:15;13.63;;;6.70;;
80748;SDS011;70145;53.746;9.970;2024-02-15T09:43:41;10.38;;;5.65;;
80748;SDS011;70145;53.746;9.970;2024-02-15T09:46:07;12.25;;;6.75;;
80748;SDS011;70145;53.746;9.970;2024-02-15T09:48:33;13.07;;;6.40;;
80748;SDS011;70145;53.746;9.970;2024-02-15T09:50:59;12.80;;;6.43;;
80748;SDS011;70145;53.746;9.970;2024-02-15T09:53:26;12.73;;;6.65;;
80748;SDS011;70145;53.746;9.970;2024-02-15T09:55:53;13.55;;;7.07;;
80748;SDS011;70145;53.746;9.970;2024-02-15T09:58:19;14.63;;;6.63;;
80748;SDS011;70145;53.746;9.970;2024-02-15T10:00:47;12.63;;;6.72;;
80748;SDS011;70145;53.746;9.970;2024-02-15T10:03:14;15.38;;;7.90;;
80748;SDS011;70145;53.746;9.970;2024-02-15T10:05:43;13.32;;;6.65;;
80748;SDS011;70145;53.746;9.970;2024-02-15T10:08:08;13.60;;;7.40;;
80748;SDS011;70145;53.746;9.970;2024-02-15T10:10:36;14.57;;;7.57;;
80748;SDS011;70145;53.746;9.970;2024-02-15T10:13:01;12.38;;;6.60;;
80748;SDS011;70145;53.746;9.970;2024-02-15T10:15:30;13.35;;;7.03;;
80748;SDS011;70145;53.746;9.970;2024-02-15T10:17:57;14.00;;;7.15;;
80748;SDS011;70145;53.746;9.970;2024-02-15T10:20:26;13.85;;;7.53;;
80748;SDS011;70145;53.746;9.970;2024-02-15T10:25:23;12.43;;;7.22;;
80748;SDS011;70145;53.746;9.970;2024-02-15T10:27:52;11.32;;;6.32;;
80748;SDS011;70145;53.746;9.970;2024-02-15T10:30:26;11.05;;;5.88;;
80748;SDS011;70145;53.746;9.970;2024-02-15T10:32:52;10.98;;;6.13;;
80748;SDS011;70145;53.746;9.970;2024-02-15T10:35:21;10.80;;;5.57;;
80748;SDS011;70145;53.746;9.970;2024-02-15T10:37:47;10.07;;;5.68;;
80748;SDS011;70145;53.746;9.970;2024-02-15T10:40:20;10.52;;;6.60;;
80748;SDS011;70145;53.746;9.970;2024-02-15T10:42:50;8.98;;;5.18;;
80748;SDS011;70145;53.746;9.970;2024-02-15T10:45:16;9.65;;;5.68;;
80748;SDS011;70145;53.746;9.970;2024-02-15T10:47:45;13.23;;;7.07;;
80748;SDS011;70145;53.746;9.970;2024-02-15T10:50:12;12.65;;;5.88;;
80748;SDS011;70145;53.746;9.970;2024-02-15T10:52:41;13.05;;;7.28;;
80748;SDS011;70145;53.746;9.970;2024-02-15T10:55:17;11.80;;;6.38;;
80748;SDS011;70145;53.746;9.970;2024-02-15T10:57:51;12.95;;;7.22;;
80748;SDS011;70145;53.746;9.970;2024-02-15T11:00:17;11.88;;;6.72;;
80748;SDS011;70145;53.746;9.970;2024-02-15T11:02:54;13.07;;;7.20;;
80748;SDS011;70145;53.746;9.970;2024-02-15T11:05:34;13.02;;;7.53;;
80748;SDS011;70145;53.746;9.970;2024-02-15T11:08:04;14.30;;;7.85;;
80748;SDS011;70145;53.746;9.970;2024-02-15T11:10:31;13.43;;;7.43;;
80748;SDS011;70145;53.746;9.970;2024-02-15T11:13:01;14.38;;;6.95;;
80748;SDS011;70145;53.746;9.970;2024-02-15T11:15:40;12.93;;;8.23;;
80748;SDS011;70145;53.746;9.970;2024-02-15T11:21:16;15.02;;;7.68;;
80748;SDS011;70145;53.746;9.970;2024-02-15T11:27:04;15.43;;;8.15;;
80748;SDS011;70145;53.746;9.970;2024-02-15T11:32:45;12.25;;;7.40;;
80748;SDS011;70145;53.746;9.970;2024-02-15T11:35:17;13.40;;;7.40;;
80748;SDS011;70145;53.746;9.970;2024-02-15T11:40:13;13.70;;;8.35;;
80748;SDS011;70145;53.746;9.970;2024-02-15T11:42:42;13.68;;;8.13;;
80748;SDS011;70145;53.746;9.970;2024-02-15T11:45:14;11.25;;;7.13;;
80748;SDS011;70145;53.746;9.970;2024-02-15T11:47:43;16.38;;;8.60;;
80748;SDS011;70145;53.746;9.970;2024-02-15T11:50:14;15.73;;;8.35;;
80748;SDS011;70145;53.746;9.970;2024-02-15T11:52:43;11.85;;;8.20;;
80748;SDS011;70145;53.746;9.970;2024-02-15T11:55:10;16.10;;;8.73;;
80748;SDS011;70145;53.746;9.970;2024-02-15T11:57:38;15.18;;;8.77;;
80748;SDS011;70145;53.746;9.970;2024-02-15T12:00:25;12.80;;;8.65;;
80748;SDS011;70145;53.746;9.970;2024-02-15T12:03:10;13.88;;;9.18;;
80748;SDS011;70145;53.746;9.970;2024-02-15T12:05:57;15.25;;;8.88;;
80748;SDS011;70145;53.746;9.970;2024-02-15T12:08:48;15.13;;;9.10;;
80748;SDS011;70145;53.746;9.970;2024-02-15T12:11:33;16.08;;;8.88;;
80748;SDS011;70145;53.746;9.970;2024-02-15T12:14:17;14.30;;;8.73;;
80748;SDS011;70145;53.746;9.970;2024-02-15T12:17:11;13.75;;;8.57;;
80748;SDS011;70145;53.746;9.970;2024-02-15T12:19:57;13.35;;;8.10;;
80748;SDS011;70145;53.746;9.970;2024-02-15T12:24:57;14.88;;;8.60;;
80748;SDS011;70145;53.746;9.970;2024-02-15T12:27:25;14.10;;;8.77;;
80748;SDS011;70145;53.746;9.970;2024-02-15T12:29:58;13.68;;;8.15;;
80748;SDS011;70145;53.746;9.970;2024-02-15T12:32:24;14.43;;;8.52;;
80748;SDS011;70145;53.746;9.970;2024-02-15T12:34:51;11.82;;;7.72;;
80748;SDS011;70145;53.746;9.970;2024-02-15T12:37:18;11.95;;;7.70;;
80748;SDS011;70145;53.746;9.970;2024-02-15T12:39:45;11.73;;;6.97;;
80748;SDS011;70145;53.746;9.970;2024-02-15T12:42:12;12.35;;;7.25;;
80748;SDS011;70145;53.746;9.970;2024-02-15T12:44:41;14.80;;;7.25;;
80748;SDS011;70145;53.746;9.970;2024-02-15T12:47:16;9.80;;;6.85;;
80748;SDS011;70145;53.746;9.970;2024-02-15T12:49:46;10.88;;;7.35;;
80748;SDS011;70145;53.746;9.970;2024-02-15T12:55:14;11.57;;;6.60;;
80748;SDS011;70145;53.746;9.970;2024-02-15T12:57:40;8.77;;;5.88;;
80748;SDS011;70145;53.746;9.970;2024-02-15T13:00:08;8.98;;;5.60;;
80748;SDS011;70145;53.746;9.970;2024-02-15T13:02:58;9.77;;;6.50;;
80748;SDS011;70145;53.746;9.970;2024-02-15T13:05:25;10.90;;;6.65;;
80748;SDS011;70145;53.746;9.970;2024-02-15T13:07:52;9.70;;;6.25;;
80748;SDS011;70145;53.746;9.970;2024-02-15T13:10:22;8.55;;;5.75;;
80748;SDS011;70145;53.746;9.970;2024-02-15T13:12:51;8.30;;;5.85;;
80748;SDS011;70145;53.746;9.970;2024-02-15T13:15:18;8.65;;;5.75;;
80748;SDS011;70145;53.746;9.970;2024-02-15T13:17:49;9.38;;;5.60;;
80748;SDS011;70145;53.746;9.970;2024-02-15T13:20:18;8.18;;;5.47;;
80748;SDS011;70145;53.746;9.970;2024-02-15T13:22:56;8.07;;;5.72;;
80748;SDS011;70145;53.746;9.970;2024-02-15T13:25:25;8.15;;;6.00;;
80748;SDS011;70145;53.746;9.970;2024-02-15T13:27:50;7.88;;;5.03;;
80748;SDS011;70145;53.746;9.970;2024-02-15T13:30:16;8.77;;;5.32;;
80748;SDS011;70145;53.746;9.970;2024-02-15T13:32:46;8.73;;;5.90;;
80748;SDS011;70145;53.746;9.970;2024-02-15T13:35:11;6.93;;;4.70;;
80748;SDS011;70145;53.746;9.970;2024-02-15T13:37:40;7.18;;;5.25;;
80748;SDS011;70145;53.746;9.970;2024-02-15T13:40:12;8.35;;;5.45;;
80748;SDS011;70145;53.746;9.970;2024-02-15T13:42:44;7.75;;;5.18;;
80748;SDS011;70145;53.746;9.970;2024-02-15T13:45:15;8.40;;;5.60;;
80748;SDS011;70145;53.746;9.970;2024-02-15T13:47:44;7.70;;;4.90;;
80748;SDS011;70145;53.746;9.970;2024-02-15T13:50:11;7.43;;;4.82;;
80748;SDS011;70145;53.746;9.970;2024-02-15T13:52:39;6.70;;;4.93;;
80748;SDS011;70145;53.746;9.970;2024-02-15T13:55:06;8.57;;;6.32;;
80748;SDS011;70145;53.746;9.970;2024-02-15T13:57:33;9.02;;;5.93;;
80748;SDS011;70145;53.746;9.970;2024-02-15T13:59:58;8.43;;;5.30;;
80748;SDS011;70145;53.746;9.970;2024-02-15T14:02:24;9.82;;;5.45;;
80748;SDS011;70145;53.746;9.970;2024-02-15T14:04:49;8.23;;;5.88;;
80748;SDS011;70145;53.746;9.970;2024-02-15T14:07:14;7.85;;;5.45;;
80748;SDS011;70145;53.746;9.970;2024-02-15T14:09:40;8.30;;;5.95;;
80748;SDS011;70145;53.746;9.970;2024-02-15T14:12:06;9.57;;;6.40;;
80748;SDS011;70145;53.746;9.970;2024-02-15T14:14:32;9.57;;;6.22;;
80748;SDS011;70145;53.746;9.970;2024-02-15T14:16:57;8.02;;;5.35;;
80748;SDS011;70145;53.746;9.970;2024-02-15T14:19:22;8.07;;;5.40;;
80748;SDS011;70145;53.746;9.970;2024-02-15T14:21:51;10.45;;;7.45;;
80748;SDS011;70145;53.746;9.970;2024-02-15T14:24:19;7.72;;;5.75;;
80748;SDS011;70145;53.746;9.970;2024-02-15T14:26:47;9.85;;;6.00;;
80748;SDS011;70145;53.746;9.970;2024-02-15T14:29:13;9.93;;;7.07;;
80748;SDS011;70145;53.746;9.970;2024-02-15T14:31:39;9.05;;;6.07;;
80748;SDS011;70145;53.746;9.970;2024-02-15T14:34:23;9.65;;;7.18;;
80748;SDS011;70145;53.746;9.970;2024-02-15T14:36:50;8.75;;;5.70;;
80748;SDS011;70145;53.746;9.970;2024-02-15T14:39:20;8.95;;;7.00;;
80748;SDS011;70145;53.746;9.970;2024-02-15T14:41:46;9.93;;;6.78;;
80748;SDS011;70145;53.746;9.970;2024-02-15T14:44:12;10.43;;;6.28;;
80748;SDS011;70145;53.746;9.970;2024-02-15T14:49:11;7.40;;;5.50;;
80748;SDS011;70145;53.746;9.970;2024-02-15T14:51:36;10.37;;;6.23;;
80748;SDS011;70145;53.746;9.970;2024-02-15T14:54:04;10.98;;;6.28;;
80748;SDS011;70145;53.746;9.970;2024-02-15T14:56:29;7.97;;;5.83;;
80748;SDS011;70145;53.746;9.970;2024-02-15T14:58:54;7.72;;;5.70;;
80748;SDS011;70145;53.746;9.970;2024-02-15T15:01:20;9.00;;;5.87;;
80748;SDS011;70145;53.746;9.970;2024-02-15T15:03:52;8.35;;;6.55;;
80748;SDS011;70145;53.746;9.970;2024-02-15T15:06:20;9.75;;;7.18;;